sensor_id;sensor_type;location;lat;lon;timestamp;pressure;altitude;pressure_sealevel;temperature;humidity
41062;BME280;26812;42.662;23.352;2023-07-20T00:01:25;94599.13;;;25.19;50.21
41062;BME280;26812;42.662;23.352;2023-07-20T00:03:50;94623.34;;;25.31;48.38
41062;BME280;26812;42.662;23.352;2023-07-20T00:06:21;94623.78;;;25.29;48.53
41062;BME280;26812;42.662;23.352;2023-07-20T00:08:46;94624.69;;;25.69;47.75
41062;BME280;26812;42.662;23.352;2023-07-20T00:11:12;94626.13;;;25.54;47.79
41062;BME280;26812;42.662;23.352;2023-07-20T00:13:39;94613.47;;;25.57;46.12
41062;BME280;26812;42.662;23.352;2023-07-20T00:16:04;94610.66;;;25.60;47.56
41062;BME280;26812;42.662;23.352;2023-07-20T00:18:30;94617.00;;;25.34;47.65
41062;BME280;26812;42.662;23.352;2023-07-20T00:20:55;94617.06;;;25.30;47.57
41062;BME280;26812;42.662;23.352;2023-07-20T00:23:20;94620.00;;;25.20;48.50
41062;BME280;26812;42.662;23.352;2023-07-20T00:25:50;94631.50;;;25.38;48.95
41062;BME280;26812;42.662;23.352;2023-07-20T00:28:16;94613.53;;;25.30;48.01
41062;BME280;26812;42.662;23.352;2023-07-20T00:30:41;94626.72;;;25.42;48.06
41062;BME280;26812;42.662;23.352;2023-07-20T00:33:10;94612.69;;;25.33;49.09
41062;BME280;26812;42.662;23.352;2023-07-20T00:35:36;94601.84;;;25.69;48.27
41062;BME280;26812;42.662;23.352;2023-07-20T00:38:03;94617.47;;;25.29;49.43
41062;BME280;26812;42.662;23.352;2023-07-20T00:40:28;94614.47;;;25.20;49.96
41062;BME280;26812;42.662;23.352;2023-07-20T00:42:53;94613.03;;;25.35;49.86
41062;BME280;26812;42.662;23.352;2023-07-20T00:45:19;94613.63;;;25.23;49.90
41062;BME280;26812;42.662;23.352;2023-07-20T00:47:44;94617.38;;;25.09;50.26
41062;BME280;26812;42.662;23.352;2023-07-20T00:50:10;94601.47;;;24.93;50.24
41062;BME280;26812;42.662;23.352;2023-07-20T00:52:37;94607.59;;;25.04;50.72
41062;BME280;26812;42.662;23.352;2023-07-20T00:55:05;94609.00;;;24.89;51.18
41062;BME280;26812;42.662;23.352;2023-07-20T00:57:31;94588.63;;;25.10;50.94
41062;BME280;26812;42.662;23.352;2023-07-20T00:59:57;94590.38;;;24.97;51.99
41062;BME280;26812;42.662;23.352;2023-07-20T01:02:22;94581.75;;;24.95;51.76
41062;BME280;26812;42.662;23.352;2023-07-20T01:04:48;94596.50;;;25.12;51.94
41062;BME280;26812;42.662;23.352;2023-07-20T01:07:42;94597.31;;;25.08;51.99
41062;BME280;26812;42.662;23.352;2023-07-20T01:10:20;94598.66;;;25.24;52.00
41062;BME280;26812;42.662;23.352;2023-07-20T01:12:54;94585.47;;;25.12;51.89
41062;BME280;26812;42.662;23.352;2023-07-20T01:15:20;94619.91;;;24.96;52.99
41062;BME280;26812;42.662;23.352;2023-07-20T01:17:45;94617.09;;;24.73;54.06
41062;BME280;26812;42.662;23.352;2023-07-20T01:20:14;94613.69;;;24.92;53.44
41062;BME280;26812;42.662;23.352;2023-07-20T01:31:36;94600.09;;;24.51;54.83
41062;BME280;26812;42.662;23.352;2023-07-20T01:34:03;94609.13;;;24.52;54.84
41062;BME280;26812;42.662;23.352;2023-07-20T01:36:34;94616.00;;;24.36;54.78
41062;BME280;26812;42.662;23.352;2023-07-20T01:39:00;94613.88;;;24.48;54.88
41062;BME280;26812;42.662;23.352;2023-07-20T01:41:26;94614.97;;;24.23;54.74
41062;BME280;26812;42.662;23.352;2023-07-20T01:43:52;94601.81;;;24.04;55.21
41062;BME280;26812;42.662;23.352;2023-07-20T01:46:17;94605.34;;;24.04;55.62
41062;BME280;26812;42.662;23.352;2023-07-20T01:48:43;94600.41;;;23.89;56.63
41062;BME280;26812;42.662;23.352;2023-07-20T01:51:08;94600.28;;;23.62;57.96
41062;BME280;26812;42.662;23.352;2023-07-20T01:53:33;94600.31;;;23.58;58.23
41062;BME280;26812;42.662;23.352;2023-07-20T01:55:59;94610.44;;;24.06;57.39
41062;BME280;26812;42.662;23.352;2023-07-20T01:58:24;94592.91;;;24.27;56.52
41062;BME280;26812;42.662;23.352;2023-07-20T02:00:50;94591.16;;;24.06;56.88
41062;BME280;26812;42.662;23.352;2023-07-20T02:03:15;94610.91;;;23.97;57.54
41062;BME280;26812;42.662;23.352;2023-07-20T02:05:44;94596.31;;;24.04;57.09
41062;BME280;26812;42.662;23.352;2023-07-20T02:08:10;94582.28;;;23.50;58.89
41062;BME280;26812;42.662;23.352;2023-07-20T02:10:36;94598.25;;;23.69;58.64
41062;BME280;26812;42.662;23.352;2023-07-20T02:13:01;94589.47;;;23.81;58.53
41062;BME280;26812;42.662;23.352;2023-07-20T02:15:26;94587.25;;;23.69;58.74
41062;BME280;26812;42.662;23.352;2023-07-20T02:17:52;94599.59;;;23.92;58.41
41062;BME280;26812;42.662;23.352;2023-07-20T02:20:18;94593.53;;;24.04;57.95
41062;BME280;26812;42.662;23.352;2023-07-20T02:22:44;94597.44;;;23.72;58.74
41062;BME280;26812;42.662;23.352;2023-07-20T02:25:09;94587.00;;;23.49;59.54
41062;BME280;26812;42.662;23.352;2023-07-20T02:27:35;94584.44;;;23.32;60.49
41062;BME280;26812;42.662;23.352;2023-07-20T02:30:07;94589.13;;;23.35;60.74
41062;BME280;26812;42.662;23.352;2023-07-20T02:32:34;94596.09;;;23.43;60.63
41062;BME280;26812;42.662;23.352;2023-07-20T02:35:00;94595.97;;;23.61;59.98
41062;BME280;26812;42.662;23.352;2023-07-20T02:37:25;94580.97;;;23.69;59.32
41062;BME280;26812;42.662;23.352;2023-07-20T02:39:50;94578.00;;;23.87;58.70
41062;BME280;26812;42.662;23.352;2023-07-20T02:42:16;94575.66;;;23.89;58.80
41062;BME280;26812;42.662;23.352;2023-07-20T02:44:41;94566.94;;;23.94;58.75
41062;BME280;26812;42.662;23.352;2023-07-20T02:47:07;94561.53;;;23.83;59.30
41062;BME280;26812;42.662;23.352;2023-07-20T02:49:32;94573.88;;;23.71;59.79
41062;BME280;26812;42.662;23.352;2023-07-20T02:51:58;94572.00;;;23.61;60.31
41062;BME280;26812;42.662;23.352;2023-07-20T02:54:23;94544.75;;;23.33;60.86
41062;BME280;26812;42.662;23.352;2023-07-20T02:56:48;94554.38;;;23.10;61.70
41062;BME280;26812;42.662;23.352;2023-07-20T02:59:14;94567.91;;;22.83;62.72
41062;BME280;26812;42.662;23.352;2023-07-20T03:01:39;94580.78;;;22.97;62.49
41062;BME280;26812;42.662;23.352;2023-07-20T03:04:07;94570.97;;;22.96;62.52
41062;BME280;26812;42.662;23.352;2023-07-20T03:06:35;94575.97;;;23.08;62.80
41062;BME280;26812;42.662;23.352;2023-07-20T03:09:01;94576.75;;;23.09;62.80
41062;BME280;26812;42.662;23.352;2023-07-20T03:11:26;94564.31;;;22.97;63.07
41062;BME280;26812;42.662;23.352;2023-07-20T03:13:52;94575.81;;;23.30;61.80
41062;BME280;26812;42.662;23.352;2023-07-20T03:16:19;94578.16;;;23.31;61.53
41062;BME280;26812;42.662;23.352;2023-07-20T03:18:44;94575.47;;;23.69;60.65
41062;BME280;26812;42.662;23.352;2023-07-20T03:21:10;94586.50;;;23.65;60.95
41062;BME280;26812;42.662;23.352;2023-07-20T03:23:37;94586.34;;;23.79;60.31
41062;BME280;26812;42.662;23.352;2023-07-20T03:26:02;94589.63;;;23.67;60.62
41062;BME280;26812;42.662;23.352;2023-07-20T03:28:28;94577.78;;;23.26;61.82
41062;BME280;26812;42.662;23.352;2023-07-20T03:30:54;94592.44;;;23.12;62.91
41062;BME280;26812;42.662;23.352;2023-07-20T03:33:28;94590.59;;;22.98;63.31
41062;BME280;26812;42.662;23.352;2023-07-20T03:35:54;94580.25;;;23.13;63.13
41062;BME280;26812;42.662;23.352;2023-07-20T03:38:21;94586.19;;;23.08;63.04
41062;BME280;26812;42.662;23.352;2023-07-20T03:40:56;94590.22;;;23.41;62.03
41062;BME280;26812;42.662;23.352;2023-07-20T03:43:22;94595.59;;;23.59;61.74
41062;BME280;26812;42.662;23.352;2023-07-20T03:45:48;94597.19;;;23.56;62.07
41062;BME280;26812;42.662;23.352;2023-07-20T03:48:16;94600.91;;;23.32;63.32
41062;BME280;26812;42.662;23.352;2023-07-20T03:50:42;94588.94;;;23.52;61.53
41062;BME280;26812;42.662;23.352;2023-07-20T03:53:07;94604.19;;;23.64;60.39
41062;BME280;26812;42.662;23.352;2023-07-20T03:55:32;94593.59;;;23.63;59.81
41062;BME280;26812;42.662;23.352;2023-07-20T03:57:58;94582.28;;;23.50;59.56
41062;BME280;26812;42.662;23.352;2023-07-20T04:00:23;94593.28;;;23.50;60.25
41062;BME280;26812;42.662;23.352;2023-07-20T04:02:49;94600.09;;;23.79;59.18
41062;BME280;26812;42.662;23.352;2023-07-20T04:05:14;94603.53;;;23.91;59.12
41062;BME280;26812;42.662;23.352;2023-07-20T04:07:40;94590.09;;;23.96;58.56
41062;BME280;26812;42.662;23.352;2023-07-20T04:10:06;94587.97;;;23.73;59.03
41062;BME280;26812;42.662;23.352;2023-07-20T04:12:31;94592.66;;;23.35;60.12
41062;BME280;26812;42.662;23.352;2023-07-20T04:14:56;94592.59;;;23.39;60.05
41062;BME280;26812;42.662;23.352;2023-07-20T04:17:22;94593.69;;;23.48;59.94
41062;BME280;26812;42.662;23.352;2023-07-20T04:19:47;94588.31;;;23.79;59.31
41062;BME280;26812;42.662;23.352;2023-07-20T04:22:13;94581.91;;;23.93;58.93
41062;BME280;26812;42.662;23.352;2023-07-20T04:24:43;94570.56;;;23.83;58.77
41062;BME280;26812;42.662;23.352;2023-07-20T04:27:09;94585.34;;;24.00;58.42
41062;BME280;26812;42.662;23.352;2023-07-20T04:29:34;94590.09;;;23.96;58.75
41062;BME280;26812;42.662;23.352;2023-07-20T04:31:59;94571.59;;;23.63;59.54
41062;BME280;26812;42.662;23.352;2023-07-20T04:34:25;94580.66;;;23.60;59.14
41062;BME280;26812;42.662;23.352;2023-07-20T04:36:50;94590.78;;;23.70;58.69
41062;BME280;26812;42.662;23.352;2023-07-20T04:39:16;94578.72;;;23.94;58.21
41062;BME280;26812;42.662;23.352;2023-07-20T04:41:41;94569.31;;;23.92;58.01
41062;BME280;26812;42.662;23.352;2023-07-20T04:44:06;94567.94;;;23.73;58.57
41062;BME280;26812;42.662;23.352;2023-07-20T04:46:32;94574.06;;;23.91;58.20
41062;BME280;26812;42.662;23.352;2023-07-20T04:48:57;94573.59;;;23.96;56.94
41062;BME280;26812;42.662;23.352;2023-07-20T04:51:22;94578.63;;;23.67;58.50
41062;BME280;26812;42.662;23.352;2023-07-20T04:53:48;94568.56;;;23.91;57.81
41062;BME280;26812;42.662;23.352;2023-07-20T04:56:14;94565.44;;;23.89;57.00
41062;BME280;26812;42.662;23.352;2023-07-20T04:58:39;94566.66;;;24.15;57.02
41062;BME280;26812;42.662;23.352;2023-07-20T05:01:05;94553.78;;;23.74;58.15
41062;BME280;26812;42.662;23.352;2023-07-20T05:03:30;94573.00;;;24.12;57.53
41062;BME280;26812;42.662;23.352;2023-07-20T05:05:56;94568.81;;;24.00;57.34
41062;BME280;26812;42.662;23.352;2023-07-20T05:08:22;94556.91;;;24.10;57.73
41062;BME280;26812;42.662;23.352;2023-07-20T05:10:47;94573.78;;;24.12;56.89
41062;BME280;26812;42.662;23.352;2023-07-20T05:13:13;94568.66;;;24.14;56.91
41062;BME280;26812;42.662;23.352;2023-07-20T05:15:38;94576.84;;;24.18;56.68
41062;BME280;26812;42.662;23.352;2023-07-20T05:18:04;94568.69;;;24.45;56.34
41062;BME280;26812;42.662;23.352;2023-07-20T05:20:29;94564.13;;;24.62;54.57
41062;BME280;26812;42.662;23.352;2023-07-20T05:22:56;94580.97;;;24.67;54.72
41062;BME280;26812;42.662;23.352;2023-07-20T05:25:22;94554.84;;;24.52;55.10
41062;BME280;26812;42.662;23.352;2023-07-20T05:27:48;94578.50;;;25.03;53.86
41062;BME280;26812;42.662;23.352;2023-07-20T05:30:13;94563.31;;;25.19;53.08
41062;BME280;26812;42.662;23.352;2023-07-20T05:32:39;94578.41;;;25.11;53.10
41062;BME280;26812;42.662;23.352;2023-07-20T05:35:04;94573.72;;;25.31;51.75
41062;BME280;26812;42.662;23.352;2023-07-20T05:37:30;94586.50;;;25.45;51.84
41062;BME280;26812;42.662;23.352;2023-07-20T05:39:55;94578.34;;;24.87;51.99
41062;BME280;26812;42.662;23.352;2023-07-20T05:42:21;94564.09;;;24.35;53.47
41062;BME280;26812;42.662;23.352;2023-07-20T05:44:46;94579.94;;;24.58;54.12
41062;BME280;26812;42.662;23.352;2023-07-20T05:47:13;94594.25;;;25.03;53.31
41062;BME280;26812;42.662;23.352;2023-07-20T05:49:38;94597.94;;;24.93;54.15
41062;BME280;26812;42.662;23.352;2023-07-20T05:52:04;94597.09;;;25.23;53.21
41062;BME280;26812;42.662;23.352;2023-07-20T05:54:29;94587.38;;;25.61;50.95
41062;BME280;26812;42.662;23.352;2023-07-20T05:56:55;94598.13;;;25.32;51.42
41062;BME280;26812;42.662;23.352;2023-07-20T05:59:20;94604.78;;;25.12;52.88
41062;BME280;26812;42.662;23.352;2023-07-20T06:01:46;94594.81;;;25.64;52.72
41062;BME280;26812;42.662;23.352;2023-07-20T06:04:14;94585.91;;;25.80;51.91
41062;BME280;26812;42.662;23.352;2023-07-20T06:06:39;94585.75;;;25.87;52.11
41062;BME280;26812;42.662;23.352;2023-07-20T06:09:05;94593.13;;;25.74;52.91
41062;BME280;26812;42.662;23.352;2023-07-20T06:11:34;94597.63;;;26.08;52.07
41062;BME280;26812;42.662;23.352;2023-07-20T06:14:00;94588.03;;;26.32;51.15
41062;BME280;26812;42.662;23.352;2023-07-20T06:16:25;94582.97;;;26.50;49.88
41062;BME280;26812;42.662;23.352;2023-07-20T06:18:50;94596.00;;;26.86;49.36
41062;BME280;26812;42.662;23.352;2023-07-20T06:21:16;94584.41;;;26.75;49.51
41062;BME280;26812;42.662;23.352;2023-07-20T06:23:41;94585.88;;;26.79;49.75
41062;BME280;26812;42.662;23.352;2023-07-20T06:26:07;94569.22;;;26.83;50.17
41062;BME280;26812;42.662;23.352;2023-07-20T06:28:33;94562.78;;;27.22;49.31
41062;BME280;26812;42.662;23.352;2023-07-20T06:31:05;94545.69;;;27.43;48.21
41062;BME280;26812;42.662;23.352;2023-07-20T06:33:30;94556.91;;;27.52;48.08
41062;BME280;26812;42.662;23.352;2023-07-20T06:35:57;94562.38;;;27.56;47.99
41062;BME280;26812;42.662;23.352;2023-07-20T06:38:23;94560.25;;;27.76;46.92
41062;BME280;26812;42.662;23.352;2023-07-20T06:40:49;94571.78;;;27.59;47.23
41062;BME280;26812;42.662;23.352;2023-07-20T06:43:15;94567.47;;;27.41;48.15
41062;BME280;26812;42.662;23.352;2023-07-20T06:45:41;94567.63;;;27.50;47.42
41062;BME280;26812;42.662;23.352;2023-07-20T06:48:06;94564.25;;;27.59;47.36
41062;BME280;26812;42.662;23.352;2023-07-20T06:50:32;94567.09;;;28.17;46.67
41062;BME280;26812;42.662;23.352;2023-07-20T06:52:57;94560.00;;;27.87;46.99
41062;BME280;26812;42.662;23.352;2023-07-20T06:55:23;94562.88;;;27.67;47.65
41062;BME280;26812;42.662;23.352;2023-07-20T06:57:49;94564.53;;;28.23;45.60
41062;BME280;26812;42.662;23.352;2023-07-20T07:00:14;94571.34;;;28.34;45.09
41062;BME280;26812;42.662;23.352;2023-07-20T07:02:40;94588.03;;;28.18;46.00
41062;BME280;26812;42.662;23.352;2023-07-20T07:05:05;94594.06;;;28.29;45.67
41062;BME280;26812;42.662;23.352;2023-07-20T07:07:31;94600.84;;;28.41;45.25
41062;BME280;26812;42.662;23.352;2023-07-20T07:09:57;94587.44;;;28.94;43.99
41062;BME280;26812;42.662;23.352;2023-07-20T07:12:22;94600.56;;;28.77;43.88
41062;BME280;26812;42.662;23.352;2023-07-20T07:14:48;94603.88;;;28.59;43.91
41062;BME280;26812;42.662;23.352;2023-07-20T07:17:13;94606.88;;;28.65;44.50
41062;BME280;26812;42.662;23.352;2023-07-20T07:19:39;94629.31;;;28.41;44.99
41062;BME280;26812;42.662;23.352;2023-07-20T07:22:06;94640.50;;;28.38;45.14
41062;BME280;26812;42.662;23.352;2023-07-20T07:24:31;94638.72;;;28.31;44.72
41062;BME280;26812;42.662;23.352;2023-07-20T07:27:00;94637.19;;;28.43;44.75
41062;BME280;26812;42.662;23.352;2023-07-20T07:29:26;94636.25;;;29.04;44.78
41062;BME280;26812;42.662;23.352;2023-07-20T07:31:52;94639.69;;;28.95;43.19
41062;BME280;26812;42.662;23.352;2023-07-20T07:34:23;94647.69;;;29.19;43.26
41062;BME280;26812;42.662;23.352;2023-07-20T07:36:48;94634.97;;;29.47;42.97
41062;BME280;26812;42.662;23.352;2023-07-20T07:39:15;94626.16;;;29.74;41.35
41062;BME280;26812;42.662;23.352;2023-07-20T07:41:40;94618.41;;;29.56;42.29
41062;BME280;26812;42.662;23.352;2023-07-20T07:44:05;94621.81;;;29.60;42.10
41062;BME280;26812;42.662;23.352;2023-07-20T07:46:31;94621.94;;;29.44;42.67
41062;BME280;26812;42.662;23.352;2023-07-20T07:48:56;94633.25;;;29.36;42.55
41062;BME280;26812;42.662;23.352;2023-07-20T07:51:28;94608.16;;;29.78;42.77
41062;BME280;26812;42.662;23.352;2023-07-20T07:53:54;94584.13;;;29.84;41.23
41062;BME280;26812;42.662;23.352;2023-07-20T07:56:19;94581.28;;;29.75;41.77
41062;BME280;26812;42.662;23.352;2023-07-20T07:58:48;94585.31;;;29.96;42.15
41062;BME280;26812;42.662;23.352;2023-07-20T08:01:14;94599.03;;;29.78;41.80
41062;BME280;26812;42.662;23.352;2023-07-20T08:03:39;94591.25;;;29.85;42.03
41062;BME280;26812;42.662;23.352;2023-07-20T08:06:05;94580.09;;;29.51;42.97
41062;BME280;26812;42.662;23.352;2023-07-20T08:08:32;94613.91;;;29.84;42.53
41062;BME280;26812;42.662;23.352;2023-07-20T08:10:58;94616.22;;;29.85;41.90
41062;BME280;26812;42.662;23.352;2023-07-20T08:13:23;94631.13;;;29.79;41.43
41062;BME280;26812;42.662;23.352;2023-07-20T08:15:50;94642.34;;;30.22;42.12
41062;BME280;26812;42.662;23.352;2023-07-20T08:18:19;94640.34;;;30.23;41.63
41062;BME280;26812;42.662;23.352;2023-07-20T08:20:45;94629.34;;;30.19;41.14
41062;BME280;26812;42.662;23.352;2023-07-20T08:23:11;94644.09;;;30.07;41.76
41062;BME280;26812;42.662;23.352;2023-07-20T08:25:36;94647.06;;;30.13;42.04
41062;BME280;26812;42.662;23.352;2023-07-20T08:28:04;94644.41;;;29.96;41.58
41062;BME280;26812;42.662;23.352;2023-07-20T08:30:46;94637.78;;;29.81;43.82
41062;BME280;26812;42.662;23.352;2023-07-20T08:33:17;94643.25;;;29.72;42.91
41062;BME280;26812;42.662;23.352;2023-07-20T08:35:46;94650.78;;;29.84;43.85
41062;BME280;26812;42.662;23.352;2023-07-20T08:38:11;94650.91;;;29.81;43.90
41062;BME280;26812;42.662;23.352;2023-07-20T08:40:45;94647.47;;;29.77;42.93
41062;BME280;26812;42.662;23.352;2023-07-20T08:43:12;94633.25;;;29.62;42.97
41062;BME280;26812;42.662;23.352;2023-07-20T08:45:40;94630.63;;;29.93;42.53
41062;BME280;26812;42.662;23.352;2023-07-20T08:48:07;94644.69;;;29.77;41.52
41062;BME280;26812;42.662;23.352;2023-07-20T08:50:34;94629.91;;;29.67;41.37
41062;BME280;26812;42.662;23.352;2023-07-20T08:53:00;94641.59;;;29.75;39.91
41062;BME280;26812;42.662;23.352;2023-07-20T08:55:27;94631.66;;;29.86;39.35
41062;BME280;26812;42.662;23.352;2023-07-20T08:57:57;94638.69;;;29.78;39.54
41062;BME280;26812;42.662;23.352;2023-07-20T09:00:24;94626.88;;;29.87;39.56
41062;BME280;26812;42.662;23.352;2023-07-20T09:02:52;94621.84;;;29.94;38.74
41062;BME280;26812;42.662;23.352;2023-07-20T09:05:18;94625.81;;;29.72;38.58
41062;BME280;26812;42.662;23.352;2023-07-20T09:07:44;94625.50;;;29.70;38.84
41062;BME280;26812;42.662;23.352;2023-07-20T09:10:10;94607.63;;;29.71;38.29
41062;BME280;26812;42.662;23.352;2023-07-20T09:12:40;94612.41;;;29.92;37.99
41062;BME280;26812;42.662;23.352;2023-07-20T09:15:15;94614.72;;;29.72;38.36
41062;BME280;26812;42.662;23.352;2023-07-20T09:17:51;94612.16;;;29.77;37.62
41062;BME280;26812;42.662;23.352;2023-07-20T09:20:20;94606.06;;;29.70;38.33
41062;BME280;26812;42.662;23.352;2023-07-20T09:22:45;94601.38;;;30.14;37.54
41062;BME280;26812;42.662;23.352;2023-07-20T09:25:13;94592.22;;;30.04;38.28
41062;BME280;26812;42.662;23.352;2023-07-20T09:27:44;94600.41;;;30.08;37.57
41062;BME280;26812;42.662;23.352;2023-07-20T09:30:24;94592.94;;;30.39;37.42
41062;BME280;26812;42.662;23.352;2023-07-20T09:32:50;94591.31;;;30.51;36.97
41062;BME280;26812;42.662;23.352;2023-07-20T09:35:18;94611.66;;;30.92;36.45
41062;BME280;26812;42.662;23.352;2023-07-20T09:37:48;94604.41;;;30.63;36.41
41062;BME280;26812;42.662;23.352;2023-07-20T09:40:17;94596.78;;;30.85;35.26
41062;BME280;26812;42.662;23.352;2023-07-20T09:42:43;94589.13;;;30.68;35.73
41062;BME280;26812;42.662;23.352;2023-07-20T09:45:09;94590.00;;;30.86;35.39
41062;BME280;26812;42.662;23.352;2023-07-20T09:47:38;94590.56;;;31.03;35.72
41062;BME280;26812;42.662;23.352;2023-07-20T09:50:05;94595.06;;;31.10;34.62
41062;BME280;26812;42.662;23.352;2023-07-20T09:52:39;94590.00;;;30.86;34.55
41062;BME280;26812;42.662;23.352;2023-07-20T09:55:09;94561.22;;;30.80;34.09
41062;BME280;26812;42.662;23.352;2023-07-20T09:57:36;94568.06;;;31.19;33.85
41062;BME280;26812;42.662;23.352;2023-07-20T10:00:06;94560.25;;;31.45;33.70
41062;BME280;26812;42.662;23.352;2023-07-20T10:02:43;94549.88;;;31.28;33.74
41062;BME280;26812;42.662;23.352;2023-07-20T10:05:12;94564.97;;;31.17;32.86
41062;BME280;26812;42.662;23.352;2023-07-20T10:07:43;94568.16;;;31.07;33.03
41062;BME280;26812;42.662;23.352;2023-07-20T10:10:10;94555.59;;;31.24;31.74
41062;BME280;26812;42.662;23.352;2023-07-20T10:12:37;94564.06;;;30.89;32.71
41062;BME280;26812;42.662;23.352;2023-07-20T10:15:11;94562.47;;;30.79;32.84
41062;BME280;26812;42.662;23.352;2023-07-20T10:17:46;94556.41;;;30.72;33.26
41062;BME280;26812;42.662;23.352;2023-07-20T10:20:16;94566.19;;;30.85;33.08
41062;BME280;26812;42.662;23.352;2023-07-20T10:22:43;94564.47;;;30.79;33.02
41062;BME280;26812;42.662;23.352;2023-07-20T10:25:10;94570.34;;;30.59;33.68
41062;BME280;26812;42.662;23.352;2023-07-20T10:27:36;94592.41;;;30.75;33.28
41062;BME280;26812;42.662;23.352;2023-07-20T10:30:01;94578.63;;;30.50;34.17
41062;BME280;26812;42.662;23.352;2023-07-20T10:32:28;94571.72;;;30.54;33.47
41062;BME280;26812;42.662;23.352;2023-07-20T10:34:56;94529.34;;;30.41;33.56
41062;BME280;26812;42.662;23.352;2023-07-20T10:37:55;94553.44;;;30.66;33.51
41062;BME280;26812;42.662;23.352;2023-07-20T10:42:50;94545.69;;;30.92;32.68
41062;BME280;26812;42.662;23.352;2023-07-20T10:45:17;94562.69;;;30.94;33.56
41062;BME280;26812;42.662;23.352;2023-07-20T10:47:46;94556.09;;;31.10;33.94
41062;BME280;26812;42.662;23.352;2023-07-20T10:50:12;94504.16;;;31.07;33.91
41062;BME280;26812;42.662;23.352;2023-07-20T10:52:39;94482.31;;;31.36;33.62
41062;BME280;26812;42.662;23.352;2023-07-20T10:55:14;94525.41;;;30.82;35.97
41062;BME280;26812;42.662;23.352;2023-07-20T10:57:40;94549.03;;;30.56;35.81
41062;BME280;26812;42.662;23.352;2023-07-20T11:00:13;94524.38;;;30.36;35.37
41062;BME280;26812;42.662;23.352;2023-07-20T11:02:43;94508.13;;;30.87;36.27
41062;BME280;26812;42.662;23.352;2023-07-20T11:05:36;94498.72;;;30.94;35.00
41062;BME280;26812;42.662;23.352;2023-07-20T11:08:09;94496.16;;;30.69;34.70
41062;BME280;26812;42.662;23.352;2023-07-20T11:10:34;94494.47;;;30.71;35.41
41062;BME280;26812;42.662;23.352;2023-07-20T11:13:19;94490.63;;;31.18;34.52
41062;BME280;26812;42.662;23.352;2023-07-20T11:16:03;94485.75;;;31.00;34.57
41062;BME280;26812;42.662;23.352;2023-07-20T11:18:29;94498.16;;;31.08;34.60
41062;BME280;26812;42.662;23.352;2023-07-20T11:20:56;94502.88;;;31.30;34.28
41062;BME280;26812;42.662;23.352;2023-07-20T11:23:22;94491.47;;;31.64;34.13
41062;BME280;26812;42.662;23.352;2023-07-20T11:25:47;94465.00;;;31.69;33.08
41062;BME280;26812;42.662;23.352;2023-07-20T11:28:13;94455.91;;;31.87;33.40
41062;BME280;26812;42.662;23.352;2023-07-20T11:30:38;94466.88;;;32.08;32.94
41062;BME280;26812;42.662;23.352;2023-07-20T11:33:13;94469.66;;;31.99;33.95
41062;BME280;26812;42.662;23.352;2023-07-20T11:35:46;94460.97;;;32.06;34.50
41062;BME280;26812;42.662;23.352;2023-07-20T11:38:13;94461.84;;;32.49;33.55
41062;BME280;26812;42.662;23.352;2023-07-20T11:40:47;94450.78;;;32.64;32.82
41062;BME280;26812;42.662;23.352;2023-07-20T11:43:13;94459.59;;;33.04;32.91
41062;BME280;26812;42.662;23.352;2023-07-20T11:45:39;94457.47;;;32.99;32.94
41062;BME280;26812;42.662;23.352;2023-07-20T11:48:05;94441.81;;;33.26;33.04
41062;BME280;26812;42.662;23.352;2023-07-20T11:50:30;94442.25;;;33.33;31.81
41062;BME280;26812;42.662;23.352;2023-07-20T11:53:02;94451.84;;;33.56;31.60
41062;BME280;26812;42.662;23.352;2023-07-20T11:55:27;94443.25;;;33.69;32.31
41062;BME280;26812;42.662;23.352;2023-07-20T11:58:06;94446.50;;;33.68;31.77
41062;BME280;26812;42.662;23.352;2023-07-20T12:00:32;94442.72;;;33.56;31.87
41062;BME280;26812;42.662;23.352;2023-07-20T12:02:58;94435.56;;;33.93;31.49
41062;BME280;26812;42.662;23.352;2023-07-20T12:05:24;94422.75;;;33.48;31.40
41062;BME280;26812;42.662;23.352;2023-07-20T12:07:49;94423.34;;;33.52;31.73
41062;BME280;26812;42.662;23.352;2023-07-20T12:10:24;94428.34;;;33.48;31.59
41062;BME280;26812;42.662;23.352;2023-07-20T12:12:50;94420.31;;;33.80;31.54
41062;BME280;26812;42.662;23.352;2023-07-20T12:15:25;94430.03;;;33.70;31.97
41062;BME280;26812;42.662;23.352;2023-07-20T12:18:01;94422.88;;;34.07;31.47
41062;BME280;26812;42.662;23.352;2023-07-20T12:22:52;94414.47;;;33.92;30.46
41062;BME280;26812;42.662;23.352;2023-07-20T12:25:19;94405.63;;;34.09;29.76
41062;BME280;26812;42.662;23.352;2023-07-20T12:27:45;94432.22;;;34.19;29.23
41062;BME280;26812;42.662;23.352;2023-07-20T12:30:12;94426.72;;;33.95;29.31
41062;BME280;26812;42.662;23.352;2023-07-20T12:32:38;94408.63;;;33.67;29.44
41062;BME280;26812;42.662;23.352;2023-07-20T12:35:04;94385.72;;;33.62;29.45
41062;BME280;26812;42.662;23.352;2023-07-20T12:37:30;94417.19;;;33.48;29.20
41062;BME280;26812;42.662;23.352;2023-07-20T12:39:55;94404.63;;;33.68;28.98
41062;BME280;26812;42.662;23.352;2023-07-20T12:42:20;94391.19;;;33.57;29.17
41062;BME280;26812;42.662;23.352;2023-07-20T12:44:47;94411.69;;;33.39;29.27
41062;BME280;26812;42.662;23.352;2023-07-20T12:47:12;94399.38;;;33.60;28.46
41062;BME280;26812;42.662;23.352;2023-07-20T12:49:38;94388.09;;;33.55;27.76
41062;BME280;26812;42.662;23.352;2023-07-20T12:52:04;94406.19;;;33.45;27.52
41062;BME280;26812;42.662;23.352;2023-07-20T12:54:30;94410.44;;;33.40;27.14
41062;BME280;26812;42.662;23.352;2023-07-20T12:56:55;94398.34;;;33.34;26.88
41062;BME280;26812;42.662;23.352;2023-07-20T12:59:20;94383.56;;;33.43;26.35
41062;BME280;26812;42.662;23.352;2023-07-20T13:01:46;94388.38;;;33.42;27.02
41062;BME280;26812;42.662;23.352;2023-07-20T13:04:12;94394.66;;;33.67;26.76